Terminal Aerodrome Forecast
Issued by NWS Austin/San Antonio, TX

Home | Current Version | Previous Version | Text Only | Print | Product List | Glossary On
Versions: 1 2 3 4 5 6 7 8 9 10 11 12
000
FTUS44 KEWX 302330
TAFSAT
TAF
KSAT 302330Z 3100/0106 10010KT P6SM FEW070 SCT250
     FM310700 17006KT P6SM SCT015 BKN035
     FM311900 15010KT P6SM FEW060 SCT250=

USA.gov is the U.S. government's official web portal to all federal, state and local government web resources and services.